Time;durP1;ratioP1;P1;durP2;ratioP2;P2;SDS_P1;SDS_P2;PMS_P1;PMS_P2;Temp;Humidity;BMP_temperature;BMP_pressure;BME280_temperature;BME280_humidity;BME280_pressure;Samples;Min_cycle;Max_cycle;Signal;HPM_P1;HPM_P2
2023/10/17 00:01:18;;;;;;;4.57;2.58;;;;;;;3.75;79.56;97628.63;5092765;28;20139;-59
2023/10/17 00:03:45;;;;;;;4.32;2.88;;;;;;;3.73;79.46;97620.19;5092397;28;20118;-59
2023/10/17 00:06:17;;;;;;;4.40;2.58;;;;;;;3.74;79.62;97621.81;5092239;28;20101;-60
2023/10/17 00:08:44;;;;;;;5.30;2.80;;;;;;;3.69;79.49;97621.72;5073454;28;20521;-59
2023/10/17 00:11:21;;;;;;;4.22;2.97;;;;;;;3.68;79.90;97619.31;5092588;28;20114;-60
2023/10/17 00:16:48;;;;;;;6.85;2.97;;;;;;;3.63;79.80;97615.59;5010212;28;20042;-59
2023/10/17 00:19:16;;;;;;;5.00;3.38;;;;;;;3.66;80.36;97616.94;5059181;28;20044;-60
2023/10/17 00:21:42;;;;;;;5.72;2.95;;;;;;;3.71;79.53;97619.66;5070811;28;20043;-58
2023/10/17 00:24:09;;;;;;;4.50;3.25;;;;;;;3.74;79.74;97621.81;5072048;28;20047;-60
2023/10/17 00:26:39;;;;;;;9.00;3.90;;;;;;;3.75;79.79;97617.34;5070409;28;20047;-58
2023/10/17 00:29:08;;;;;;;5.40;3.40;;;;;;;3.69;78.86;97619.09;5071797;28;20044;-58
2023/10/17 00:31:37;;;;;;;7.07;4.57;;;;;;;3.73;79.48;97619.41;5071793;28;20044;-60
2023/10/17 00:34:13;;;;;;;6.93;3.83;;;;;;;3.69;79.12;97606.00;5070115;28;20490;-59
2023/10/17 00:36:48;;;;;;;7.90;4.00;;;;;;;3.69;79.63;97607.81;5071765;28;20076;-59
2023/10/17 00:39:29;;;;;;;8.80;3.50;;;;;;;3.66;79.06;97605.66;5071617;28;20113;-60
2023/10/17 00:44:34;;;;;;;6.18;3.40;;;;;;;3.59;79.16;97609.25;5071386;28;20036;-60
2023/10/17 00:47:01;;;;;;;5.05;3.15;;;;;;;3.59;79.14;97605.81;5071503;28;20121;-59
2023/10/17 00:49:42;;;;;;;7.70;4.47;;;;;;;3.54;78.86;97610.97;5071030;28;20036;-60
2023/10/17 00:52:20;;;;;;;;;;;;;;;3.57;79.18;97606.03;5071769;28;20037;-59
2023/10/17 00:54:47;;;;;;;9.98;5.82;;;;;;;3.55;78.94;97602.06;5071139;28;19920;-60
2023/10/17 00:57:19;;;;;;;7.75;4.65;;;;;;;3.50;79.55;97609.84;5071297;28;20556;-59
2023/10/17 00:59:53;;;;;;;9.45;4.82;;;;;;;3.49;79.78;97609.03;5053270;28;20405;-60
2023/10/17 01:02:23;;;;;;;9.85;4.03;;;;;;;3.46;79.52;97608.72;5049860;28;20098;-60
2023/10/17 01:04:59;;;;;;;5.68;3.30;;;;;;;3.41;79.81;97605.00;5050912;28;20049;-61
2023/10/17 01:07:34;;;;;;;10.57;6.13;;;;;;;3.33;79.77;97613.22;5057788;28;20047;-61
2023/10/17 01:10:24;;;;;;;8.10;5.03;;;;;;;3.32;80.07;97611.59;5069107;28;20043;-61
2023/10/17 01:12:52;;;;;;;11.00;6.70;;;;;;;3.28;80.21;97614.94;5051019;28;20095;-60
2023/10/17 01:15:22;;;;;;;9.27;6.05;;;;;;;3.22;80.15;97608.03;5050623;28;20136;-59
2023/10/17 01:17:48;;;;;;;11.65;6.72;;;;;;;3.19;80.16;97622.38;5071481;28;20063;-60
2023/10/17 01:20:19;;;;;;;8.77;5.65;;;;;;;3.18;80.10;97618.97;5053297;28;20525;-61
2023/10/17 01:22:45;;;;;;;9.77;6.47;;;;;;;3.11;80.49;97620.13;5053594;28;20075;-61
2023/10/17 01:25:29;;;;;;;10.57;4.53;;;;;;;3.07;80.38;97617.16;5069952;28;20481;-60
2023/10/17 01:27:57;;;;;;;7.57;4.68;;;;;;;3.03;80.72;97623.09;5070434;28;20044;-59
2023/10/17 01:30:23;;;;;;;10.68;5.43;;;;;;;2.99;80.96;97621.97;5070162;28;20047;-60
2023/10/17 01:32:51;;;;;;;8.32;5.20;;;;;;;3.01;80.96;97627.78;5069894;28;20519;-60
2023/10/17 01:35:20;;;;;;;8.50;4.15;;;;;;;2.93;81.39;97621.88;5070921;28;20041;-58
2023/10/17 01:37:46;;;;;;;8.23;5.55;;;;;;;2.88;81.56;97623.59;5069850;28;20047;-60
2023/10/17 01:40:22;;;;;;;6.07;5.10;;;;;;;2.88;81.76;97621.78;5070058;28;20043;-61
2023/10/17 01:42:51;;;;;;;8.48;4.47;;;;;;;2.88;81.85;97620.97;5069865;28;20120;-60
2023/10/17 01:45:21;;;;;;;8.13;3.88;;;;;;;2.79;81.66;97627.59;5070905;28;20045;-59
2023/10/17 01:47:47;;;;;;;7.30;3.88;;;;;;;2.81;81.82;97628.94;5069797;28;20056;-61
2023/10/17 01:50:13;;;;;;;6.85;3.25;;;;;;;2.78;82.11;97626.00;5069920;28;20513;-60
2023/10/17 01:52:42;;;;;;;3.92;2.72;;;;;;;2.78;82.03;97626.78;5069654;28;20090;-61
2023/10/17 01:55:14;;;;;;;4.80;2.75;;;;;;;2.73;82.24;97635.31;5070709;28;20033;-61
2023/10/17 01:57:44;;;;;;;7.95;3.80;;;;;;;2.71;82.14;97626.94;5069749;28;20048;-60
2023/10/17 02:00:23;;;;;;;4.60;3.05;;;;;;;2.72;82.34;97631.13;5069663;28;20493;-61
2023/10/17 02:02:49;;;;;;;4.38;2.95;;;;;;;2.73;82.51;97631.91;5070844;28;20517;-61
2023/10/17 02:05:16;;;;;;;4.20;2.67;;;;;;;2.70;82.48;97632.38;5070379;28;20131;-61
2023/10/17 02:07:41;;;;;;;7.68;2.90;;;;;;;2.67;82.29;97633.63;5069365;28;20051;-60
2023/10/17 02:10:08;;;;;;;3.30;2.28;;;;;;;2.68;82.67;97627.38;5069657;28;20036;-59
2023/10/17 02:12:34;;;;;;;5.20;2.58;;;;;;;2.68;82.65;97626.59;5070414;28;20036;-61
2023/10/17 02:15:06;;;;;;;6.10;2.92;;;;;;;2.66;82.46;97632.03;5069172;28;20052;-59
2023/10/17 02:17:33;;;;;;;4.50;2.80;;;;;;;2.63;82.79;97637.72;5070563;28;20117;-60
2023/10/17 02:19:59;;;;;;;4.00;2.20;;;;;;;2.63;82.73;97627.25;5070690;28;20127;-60
2023/10/17 02:22:26;;;;;;;4.15;2.42;;;;;;;2.66;82.86;97623.41;5070833;28;20080;-60
2023/10/17 02:24:56;;;;;;;5.80;2.58;;;;;;;2.62;82.76;97636.16;5070324;28;20056;-60
2023/10/17 02:27:22;;;;;;;2.75;2.13;;;;;;;2.63;82.88;97631.72;5068992;28;20406;-60
2023/10/17 02:29:48;;;;;;;5.07;2.13;;;;;;;2.63;82.82;97635.13;5069311;28;20040;-60
2023/10/17 02:32:15;;;;;;;4.43;2.38;;;;;;;2.58;82.48;97631.59;5069291;28;20040;-60
2023/10/17 02:34:47;;;;;;;4.70;2.47;;;;;;;2.58;83.01;97632.38;5069089;28;20044;-61
2023/10/17 02:37:17;;;;;;;3.42;2.10;;;;;;;2.57;82.65;97632.63;5070800;28;20514;-60
2023/10/17 02:39:43;;;;;;;;;;;;;;;2.52;83.13;97640.34;5074454;28;20382;-60
2023/10/17 02:42:09;;;;;;;7.80;3.13;;;;;;;2.51;83.25;97629.09;5074299;28;19928;-60
2023/10/17 02:44:45;;;;;;;6.00;2.75;;;;;;;2.44;83.07;97631.84;5056201;28;20059;-59
2023/10/17 02:47:11;;;;;;;6.28;2.55;;;;;;;2.41;83.21;97628.84;5040770;28;20512;-59
2023/10/17 02:49:39;;;;;;;3.90;2.30;;;;;;;2.34;83.54;97628.19;5072493;28;20044;-60
2023/10/17 02:52:06;;;;;;;4.65;2.15;;;;;;;2.32;84.00;97627.59;5074101;28;20055;-59
2023/10/17 02:54:52;;;;;;;5.38;2.33;;;;;;;2.24;83.51;97620.91;5074023;28;20127;-59
2023/10/17 02:57:18;;;;;;;4.13;2.35;;;;;;;2.21;84.19;97626.59;5072419;28;20102;-59
2023/10/17 02:59:45;;;;;;;2.53;2.20;;;;;;;2.22;83.87;97621.13;5056145;28;20438;-59
2023/10/17 03:02:11;;;;;;;2.83;1.98;;;;;;;2.20;84.10;97625.00;5055699;28;20044;-57
2023/10/17 03:04:41;;;;;;;6.38;2.28;;;;;;;2.16;84.28;97619.44;5073716;28;20086;-60
2023/10/17 03:07:08;;;;;;;6.85;2.15;;;;;;;2.09;84.38;97618.75;5072293;28;20045;-60
2023/10/17 03:09:36;;;;;;;6.40;2.22;;;;;;;2.05;84.71;97618.38;5072385;28;20417;-60
2023/10/17 03:17:10;;;;;;;3.05;1.90;;;;;;;1.99;85.21;97613.25;5072233;28;20040;-58
2023/10/17 03:19:38;;;;;;;3.83;2.20;;;;;;;1.92;85.56;97612.59;5071878;28;20106;-60
2023/10/17 03:24:51;;;;;;;3.65;2.28;;;;;;;1.89;85.54;97611.22;5071864;28;20047;-60
2023/10/17 03:27:35;;;;;;;4.00;2.20;;;;;;;1.87;85.97;97615.06;5071504;28;20427;-58
2023/10/17 03:30:11;;;;;;;3.53;2.03;;;;;;;1.83;86.05;97612.13;5071853;28;20529;-60
2023/10/17 03:35:22;;;;;;;2.50;2.13;;;;;;;1.78;86.16;97604.94;5071776;28;20047;-61
2023/10/17 03:37:49;;;;;;;3.55;2.47;;;;;;;1.81;85.93;97617.56;5071968;28;20052;-61
2023/10/17 03:45:34;;;;;;;3.53;1.88;;;;;;;1.71;86.79;97616.53;5072219;28;20048;-61
2023/10/17 03:47:59;;;;;;;10.00;3.10;;;;;;;1.68;86.20;97620.38;5071925;28;20051;-58
2023/10/17 03:50:34;;;;;;;4.38;2.10;;;;;;;1.66;86.53;97632.84;5072564;28;20049;-60
2023/10/17 03:53:14;;;;;;;5.60;2.45;;;;;;;1.64;86.62;97624.44;5072446;28;20127;-59
2023/10/17 03:55:43;;;;;;;4.68;1.90;;;;;;;1.59;87.06;97627.72;5072801;28;20044;-61
2023/10/17 03:58:49;;;;;;;3.97;2.20;;;;;;;1.57;86.76;97624.53;5071160;28;20512;-61
2023/10/17 04:01:10;;;;;;;7.75;2.40;;;;;;;1.50;86.90;97630.84;5072487;28;20508;-60
2023/10/17 04:03:36;;;;;;;4.63;2.67;;;;;;;1.48;87.31;97633.69;5054319;28;20066;-60
2023/10/17 04:08:31;;;;;;;4.90;2.30;;;;;;;1.45;87.33;97651.63;5070435;28;20040;-60
2023/10/17 04:11:14;;;;;;;2.85;1.90;;;;;;;1.47;87.36;97641.75;5072362;28;20478;-61
2023/10/17 04:13:40;;;;;;;4.10;2.25;;;;;;;1.49;87.52;97652.78;5074828;28;20099;-60
2023/10/17 04:16:16;;;;;;;2.35;1.77;;;;;;;1.52;86.88;97657.56;5092583;28;20143;-59
2023/10/17 04:18:45;;;;;;;3.80;2.15;;;;;;;1.53;86.93;97654.72;5092359;28;20067;-60
2023/10/17 04:21:45;;;;;;;11.45;2.70;;;;;;;1.61;86.87;97658.03;5073790;28;20047;-59
2023/10/17 04:24:06;;;;;;;5.25;2.30;;;;;;;1.66;86.45;97658.19;5069888;28;20078;-59
2023/10/17 04:26:34;;;;;;;2.30;2.03;;;;;;;1.69;86.35;97661.13;5057316;28;20056;-61
2023/10/17 04:29:11;;;;;;;5.70;2.58;;;;;;;1.72;86.04;97665.91;5092027;28;20094;-60
2023/10/17 04:31:43;;;;;;;3.35;2.67;;;;;;;1.80;85.95;97678.66;5072946;28;20044;-60
2023/10/17 04:34:21;;;;;;;5.45;2.75;;;;;;;1.81;85.18;97675.03;5092258;28;20044;-61
2023/10/17 04:36:51;;;;;;;5.05;2.95;;;;;;;1.89;84.68;97675.75;5073963;28;20511;-62
2023/10/17 04:44:21;;;;;;;4.60;2.83;;;;;;;1.98;84.51;97679.63;5073070;28;20531;-60
2023/10/17 04:46:51;;;;;;;4.50;2.35;;;;;;;1.95;84.55;97695.75;5091648;28;20058;-60
2023/10/17 04:49:18;;;;;;;6.50;2.70;;;;;;;1.99;84.60;97700.28;5073635;28;20044;-61
2023/10/17 04:51:45;;;;;;;4.28;2.58;;;;;;;2.07;84.08;97696.56;5092054;28;20136;-60
2023/10/17 04:54:44;;;;;;;3.55;2.60;;;;;;;2.15;84.39;97696.25;5073611;28;20044;-60
2023/10/17 04:57:04;;;;;;;4.28;2.60;;;;;;;2.22;83.99;97699.56;5088846;28;20052;-60
2023/10/17 05:07:34;;;;;;;3.38;2.55;;;;;;;2.30;83.05;97714.13;5091491;28;20515;-62
2023/10/17 06:16:52;;;;;;;2.60;1.80;;;;;;;3.83;77.22;97733.09;5079001;28;20139;-60
2023/10/17 06:19:21;;;;;;;2.20;1.52;;;;;;;3.86;76.11;97735.25;5061915;28;20032;-60
2023/10/17 06:24:45;;;;;;;2.97;1.55;;;;;;;3.97;76.07;97744.09;5094351;28;20044;-62
2023/10/17 06:27:42;;;;;;;2.47;1.50;;;;;;;3.72;76.40;97728.69;5078983;28;20074;-62
2023/10/17 06:32:48;;;;;;;2.80;1.73;;;;;;;3.75;76.69;97736.06;5091944;28;20040;-60
2023/10/17 06:35:20;;;;;;;4.57;1.92;;;;;;;3.86;76.05;97743.09;5071421;28;20115;-59
2023/10/17 06:37:49;;;;;;;3.00;1.70;;;;;;;3.89;76.22;97743.69;5091023;28;20118;-59
2023/10/17 06:40:16;;;;;;;2.45;1.60;;;;;;;3.83;76.04;97740.94;5093585;28;20024;-60
2023/10/17 06:42:49;;;;;;;2.90;1.60;;;;;;;3.74;76.05;97746.81;5075247;28;20478;-59
2023/10/17 06:45:20;;;;;;;4.50;1.80;;;;;;;3.74;75.73;97752.06;5093362;28;20105;-60
2023/10/17 06:47:49;;;;;;;3.05;1.90;;;;;;;3.79;76.59;97747.66;5090479;28;20521;-60
2023/10/17 06:55:22;;;;;;;2.13;1.60;;;;;;;3.89;75.16;97746.28;5076096;28;20040;-60
2023/10/17 06:57:52;;;;;;;1.63;1.48;;;;;;;3.79;75.45;97744.25;5094289;28;20032;-61
2023/10/17 07:00:42;;;;;;;2.17;1.60;;;;;;;3.74;75.50;97757.28;5075748;28;20044;-60
2023/10/17 07:03:09;;;;;;;2.15;1.70;;;;;;;3.78;75.84;97755.78;5092642;28;20405;-60
2023/10/17 07:05:36;;;;;;;2.60;2.08;;;;;;;3.78;75.51;97761.03;5093087;28;20128;-60
2023/10/17 07:08:02;;;;;;;5.10;3.03;;;;;;;3.71;76.65;97766.41;5093097;28;20064;-61
2023/10/17 07:13:39;;;;;;;2.40;1.50;;;;;;;3.77;75.86;97772.53;5089603;28;20298;-61
2023/10/17 07:16:11;;;;;;;1.38;1.27;;;;;;;3.56;77.07;97772.16;5053165;28;20136;-62
2023/10/17 07:23:40;;;;;;;5.13;1.70;;;;;;;3.56;76.98;97790.47;5051022;28;20033;-58
2023/10/17 07:26:11;;;;;;;2.83;2.42;;;;;;;3.37;77.69;97791.63;5052718;28;20549;-62
2023/10/17 07:28:42;;;;;;;4.13;2.30;;;;;;;3.45;78.26;97788.69;5048489;28;20498;-61
2023/10/17 07:31:11;;;;;;;2.90;1.67;;;;;;;3.55;78.47;97780.22;5051260;28;20043;-61
2023/10/17 07:33:38;;;;;;;2.58;1.83;;;;;;;3.58;77.69;97791.03;5049146;28;20068;-61
2023/10/17 07:36:06;;;;;;;5.40;1.80;;;;;;;3.48;76.97;97800.53;5052082;28;20053;-60
2023/10/17 07:38:32;;;;;;;1.98;1.45;;;;;;;3.46;77.76;97798.13;5052157;28;20465;-61
2023/10/17 07:41:12;;;;;;;1.90;1.70;;;;;;;3.49;77.85;97794.25;5051107;28;20041;-60
2023/10/17 07:43:44;;;;;;;1.85;1.58;;;;;;;3.54;77.61;97792.53;5050779;28;20033;-61
2023/10/17 07:46:18;;;;;;;3.63;2.10;;;;;;;3.51;77.23;97798.22;5052316;28;20111;-61
2023/10/17 07:48:48;;;;;;;4.40;1.90;;;;;;;3.49;77.92;97797.66;5051658;28;20029;-60
2023/10/17 07:51:15;;;;;;;3.60;1.70;;;;;;;3.37;77.54;97794.25;5052483;28;20041;-62
2023/10/17 07:53:48;;;;;;;3.30;1.95;;;;;;;3.56;77.82;97800.16;5051706;28;20033;-61
2023/10/17 07:56:20;;;;;;;3.15;1.80;;;;;;;3.58;77.59;97795.47;5050738;28;20045;-61
2023/10/17 07:59:04;;;;;;;3.63;1.65;;;;;;;3.60;76.67;97801.28;5032608;28;20085;-61
2023/10/17 08:01:32;;;;;;;2.22;1.50;;;;;;;3.58;76.90;97793.66;5048860;28;20516;-61
2023/10/17 08:04:13;;;;;;;1.52;1.42;;;;;;;3.39;76.86;97803.47;5051589;28;20545;-61
2023/10/17 08:06:40;;;;;;;5.53;2.10;;;;;;;3.42;77.00;97803.03;5050379;28;20053;-60
2023/10/17 08:09:17;;;;;;;2.42;1.80;;;;;;;3.53;77.12;97805.84;5047282;28;20458;-60
2023/10/17 08:11:43;;;;;;;2.95;1.60;;;;;;;3.40;76.95;97814.75;5031335;28;20503;-61
2023/10/17 08:14:11;;;;;;;3.20;2.10;;;;;;;3.28;76.94;97825.25;5062780;28;20090;-60
2023/10/17 08:16:40;;;;;;;4.30;2.00;;;;;;;3.22;77.39;97814.88;5092553;28;20101;-60
2023/10/17 08:19:22;;;;;;;3.28;1.92;;;;;;;3.37;77.62;97821.25;5091746;28;20089;-61
2023/10/17 08:21:49;;;;;;;2.95;1.67;;;;;;;3.49;77.37;97810.75;5091558;28;20564;-62
2023/10/17 08:24:26;;;;;;;2.10;1.90;;;;;;;3.68;76.09;97811.41;5072883;28;20067;-61
2023/10/17 08:29:45;;;;;;;3.25;1.95;;;;;;;4.13;75.05;97802.84;5073342;28;20128;-61
2023/10/17 08:37:44;;;;;;;3.80;1.80;;;;;;;4.40;73.62;97789.16;5065200;28;20052;-61
2023/10/17 08:40:31;;;;;;;6.60;1.90;;;;;;;4.44;72.97;97801.56;5091633;28;20047;-62
2023/10/17 08:43:00;;;;;;;3.22;1.50;;;;;;;4.56;73.58;97798.88;5074092;28;20092;-61
2023/10/17 08:45:26;;;;;;;3.15;1.80;;;;;;;4.52;71.81;97795.13;5072912;28;20043;-60
2023/10/17 08:48:01;;;;;;;3.78;1.50;;;;;;;4.61;72.02;97796.31;5073963;28;20044;-63
2023/10/17 08:50:37;;;;;;;2.75;1.20;;;;;;;4.80;71.46;97798.75;5091937;28;20059;-61
2023/10/17 08:53:07;;;;;;;2.10;1.63;;;;;;;4.93;71.03;97793.16;5091430;28;20476;-60
2023/10/17 08:55:33;;;;;;;1.52;1.30;;;;;;;5.07;69.97;97791.00;5089883;28;20552;-60
2023/10/17 08:58:04;;;;;;;3.75;1.52;;;;;;;5.19;68.75;97794.31;5090533;28;20040;-60
2023/10/17 09:03:36;;;;;;;4.88;1.63;;;;;;;5.53;68.43;97804.75;5091484;28;20124;-59
2023/10/17 09:12:03;;;;;;;5.30;3.20;;;;;;;5.08;69.03;97793.38;5011437;28;20419;-64
2023/10/17 09:14:36;;;;;;;2.10;1.55;;;;;;;5.07;69.05;97802.31;5010075;28;20302;-64
2023/10/17 09:17:30;;;;;;;2.72;1.70;;;;;;;5.01;69.07;97798.00;5062100;28;20051;-59
2023/10/17 09:20:06;;;;;;;2.72;1.98;;;;;;;4.97;69.96;97794.25;5029600;28;20124;-60
2023/10/17 09:22:33;;;;;;;3.97;1.77;;;;;;;5.00;69.83;97799.84;5069453;28;20047;-59
2023/10/17 09:25:15;;;;;;;3.78;1.95;;;;;;;5.21;70.46;97806.19;5072446;28;20497;-60
2023/10/17 09:27:41;;;;;;;2.40;1.58;;;;;;;5.41;69.07;97797.81;5091503;28;20124;-60
2023/10/17 09:30:11;;;;;;;3.22;1.63;;;;;;;5.46;69.55;97789.97;5090660;28;20043;-59
2023/10/17 09:32:40;;;;;;;3.13;1.40;;;;;;;5.67;69.33;97792.84;5091444;28;20131;-60
2023/10/17 09:35:10;;;;;;;3.08;1.50;;;;;;;5.80;69.31;97799.59;5072506;28;20130;-62
2023/10/17 09:37:41;;;;;;;1.63;1.30;;;;;;;5.91;68.95;97798.66;5091314;28;20580;-60
2023/10/17 09:40:14;;;;;;;2.83;1.50;;;;;;;5.97;69.15;97794.28;5090863;28;20119;-61
2023/10/17 09:42:46;;;;;;;2.92;1.40;;;;;;;5.96;70.29;97801.38;5074206;28;20048;-61
2023/10/17 09:45:13;;;;;;;2.22;1.52;;;;;;;6.02;70.81;97792.50;5090369;28;20036;-61
2023/10/17 09:47:45;;;;;;;2.25;1.30;;;;;;;6.18;69.29;97798.72;5059276;28;20150;-61
2023/10/17 09:50:13;;;;;;;2.08;1.40;;;;;;;6.24;68.67;97796.94;5094660;28;20044;-60
2023/10/17 09:52:40;;;;;;;1.58;1.48;;;;;;;6.24;68.89;97796.94;5094938;28;20044;-60
2023/10/17 09:55:10;;;;;;;2.00;1.38;;;;;;;6.33;68.56;97796.25;5094548;28;20040;-62
2023/10/17 09:57:37;;;;;;;2.50;1.40;;;;;;;6.27;68.30;97797.25;5077040;28;20159;-61
2023/10/17 10:00:14;;;;;;;2.20;1.40;;;;;;;6.30;67.80;97788.84;5094698;28;20036;-62
2023/10/17 10:02:41;;;;;;;1.65;1.25;;;;;;;6.31;68.17;97789.63;5077518;28;20569;-60
2023/10/17 10:05:21;;;;;;;1.45;1.30;;;;;;;6.26;67.33;97786.94;5094450;28;20055;-60
2023/10/17 10:07:46;;;;;;;1.50;1.40;;;;;;;6.27;67.37;97781.44;5092766;28;20070;-61
2023/10/17 10:10:45;;;;;;;1.58;1.33;;;;;;;6.39;68.03;97783.16;5071618;28;20493;-62
2023/10/17 10:13:13;;;;;;;4.28;1.80;;;;;;;6.51;67.70;97781.94;5038002;28;20109;-61
2023/10/17 10:15:59;;;;;;;3.40;1.55;;;;;;;6.64;67.03;97775.44;5093911;28;20139;-61
2023/10/17 10:18:34;;;;;;;4.53;1.90;;;;;;;6.71;66.99;97788.44;5056718;28;20133;-60
2023/10/17 10:21:01;;;;;;;2.05;1.60;;;;;;;6.49;65.09;97773.47;5069638;28;20072;-60
2023/10/17 10:23:30;;;;;;;3.03;1.30;;;;;;;6.47;66.47;97777.41;5094421;28;20039;-60
2023/10/17 10:26:14;;;;;;;2.58;1.38;;;;;;;6.36;64.94;97772.06;5092654;28;20043;-60
2023/10/17 10:28:43;;;;;;;2.15;1.30;;;;;;;6.36;64.58;97769.44;5076085;28;20047;-61
2023/10/17 10:31:21;;;;;;;4.80;1.60;;;;;;;6.37;64.63;97781.53;5075893;28;20044;-60
2023/10/17 10:33:56;;;;;;;2.25;1.65;;;;;;;6.34;65.30;97782.03;5094525;28;20032;-61
2023/10/17 10:36:25;;;;;;;2.33;1.38;;;;;;;6.25;65.77;97770.38;5075569;28;20088;-61
2023/10/17 10:38:54;;;;;;;3.72;1.70;;;;;;;6.18;66.28;97771.59;5094185;28;20391;-61
2023/10/17 10:41:22;;;;;;;5.25;1.75;;;;;;;6.14;65.81;97781.84;5093824;28;20052;-61
2023/10/17 10:43:49;;;;;;;2.25;1.35;;;;;;;6.11;65.93;97777.84;5093969;28;20028;-61
2023/10/17 10:46:15;;;;;;;2.42;1.40;;;;;;;6.08;65.40;97772.31;5058873;28;20501;-60
2023/10/17 10:48:48;;;;;;;3.70;1.58;;;;;;;6.05;66.29;97768.31;5094059;28;20361;-61
2023/10/17 10:51:15;;;;;;;2.00;1.42;;;;;;;6.00;66.09;97770.94;5093234;28;20039;-61
2023/10/17 10:53:44;;;;;;;4.28;1.55;;;;;;;5.91;66.27;97781.06;5057617;28;20040;-61
2023/10/17 10:56:11;;;;;;;2.80;1.40;;;;;;;5.95;66.23;97773.50;5073778;28;20182;-58
2023/10/17 10:58:47;;;;;;;2.42;1.48;;;;;;;6.01;66.81;97766.44;5091859;28;20406;-60
2023/10/17 11:01:14;;;;;;;3.85;2.28;;;;;;;6.00;66.35;97772.72;5091619;28;20044;-61
2023/10/17 11:03:41;;;;;;;3.38;1.60;;;;;;;6.09;67.57;97772.06;5074791;28;20057;-62
2023/10/17 11:06:10;;;;;;;3.40;1.60;;;;;;;6.18;66.62;97777.69;5092691;28;20055;-62
2023/10/17 11:08:37;;;;;;;4.00;1.63;;;;;;;6.23;66.32;97782.19;5093114;28;20044;-63
2023/10/17 11:11:04;;;;;;;2.28;1.48;;;;;;;6.21;66.18;97769.28;5088751;28;20044;-60
2023/10/17 11:13:34;;;;;;;2.67;1.38;;;;;;;6.27;66.44;97776.19;5074389;28;20040;-61
2023/10/17 11:16:00;;;;;;;3.38;1.58;;;;;;;6.24;65.65;97760.13;5074430;28;20044;-61
2023/10/17 11:18:26;;;;;;;4.70;1.70;;;;;;;6.14;66.97;97772.09;5055860;28;20512;-60
2023/10/17 11:20:55;;;;;;;3.03;1.60;;;;;;;6.05;66.36;97763.06;5092857;28;20050;-61
2023/10/17 11:23:26;;;;;;;2.63;1.40;;;;;;;5.98;67.27;97775.63;5091381;28;20038;-60
2023/10/17 11:25:52;;;;;;;2.50;1.50;;;;;;;5.99;67.80;97766.69;5092536;28;20040;-61
2023/10/17 11:28:18;;;;;;;1.92;1.50;;;;;;;5.99;68.45;97771.94;5033556;28;20047;-60
2023/10/17 11:30:45;;;;;;;1.85;1.15;;;;;;;5.99;68.36;97782.47;5096925;28;20036;-61
2023/10/17 11:33:16;;;;;;;1.73;1.20;;;;;;;6.05;69.42;97773.59;5074352;28;20382;-60
2023/10/17 11:35:52;;;;;;;1.88;1.40;;;;;;;6.04;69.21;97779.09;5092471;28;20457;-61
2023/10/17 11:38:38;;;;;;;2.13;1.30;;;;;;;5.97;69.05;97779.31;5091983;28;20046;-59
2023/10/17 11:41:04;;;;;;;2.50;1.30;;;;;;;6.01;69.61;97790.13;5072937;28;20036;-61
2023/10/17 11:43:42;;;;;;;5.18;1.50;;;;;;;6.00;70.55;97786.72;5092054;28;20071;-62
2023/10/17 11:46:12;;;;;;;5.22;1.40;;;;;;;6.08;71.25;97788.88;5072095;28;20044;-61
2023/10/17 11:48:44;;;;;;;3.88;1.67;;;;;;;6.08;70.88;97782.81;5074908;28;20067;-61
2023/10/17 11:51:16;;;;;;;1.52;1.30;;;;;;;6.06;72.19;97782.25;5074642;28;20040;-64
2023/10/17 11:54:04;;;;;;;1.92;1.13;;;;;;;5.97;72.84;97792.47;5092691;28;20493;-62
2023/10/17 11:56:31;;;;;;;1.15;1.13;;;;;;;5.89;73.27;97783.13;5092895;28;20062;-61
2023/10/17 11:58:56;;;;;;;1.70;1.15;;;;;;;5.87;73.67;97789.66;5092735;28;20413;-61
2023/10/17 12:01:23;;;;;;;2.03;1.50;;;;;;;5.86;73.43;97788.09;5092383;28;20421;-61
2023/10/17 12:03:53;;;;;;;1.70;1.40;;;;;;;5.84;73.21;97790.94;5081869;28;20037;-61
2023/10/17 12:06:21;;;;;;;;;;;;;;;5.90;74.42;97791.81;5075678;28;20516;-60
2023/10/17 12:08:47;;;;;;;1.50;1.40;;;;;;;5.84;73.78;97788.31;5074296;28;20372;-60
2023/10/17 12:11:12;;;;;;;3.50;1.55;;;;;;;5.92;74.67;97787.09;5092069;28;20044;-61
2023/10/17 12:13:38;;;;;;;1.30;1.20;;;;;;;5.89;73.96;97793.66;5091666;28;20509;-62
2023/10/17 12:16:08;;;;;;;2.15;1.58;;;;;;;5.89;75.13;97784.97;5090869;28;20044;-62
2023/10/17 12:18:35;;;;;;;3.08;1.60;;;;;;;5.70;74.85;97774.75;5073257;28;20405;-61
2023/10/17 12:21:14;;;;;;;2.55;1.52;;;;;;;5.81;75.86;97791.44;5094511;28;20048;-61
2023/10/17 12:23:41;;;;;;;2.38;1.73;;;;;;;5.79;75.94;97785.63;5072942;28;20040;-63
2023/10/17 12:26:13;;;;;;;2.22;1.38;;;;;;;5.81;75.23;97782.75;5091162;28;20051;-61
2023/10/17 12:28:41;;;;;;;1.70;1.35;;;;;;;5.91;76.21;97788.13;5090327;28;20028;-62
2023/10/17 12:31:10;;;;;;;3.17;1.70;;;;;;;5.90;75.21;97789.19;5091377;28;20063;-62
2023/10/17 12:33:36;;;;;;;3.13;1.70;;;;;;;5.88;76.23;97791.25;5090634;28;20043;-63
2023/10/17 12:36:05;;;;;;;2.95;1.88;;;;;;;5.87;76.52;97800.19;5073377;28;20356;-61
2023/10/17 12:38:33;;;;;;;2.80;1.33;;;;;;;5.77;76.25;97794.81;5090644;28;20040;-61
2023/10/17 12:41:08;;;;;;;3.25;1.45;;;;;;;5.59;78.37;97794.09;5091214;28;20048;-60
2023/10/17 12:43:35;;;;;;;3.40;1.83;;;;;;;5.55;77.64;97792.16;5055406;28;20588;-61
2023/10/17 12:46:01;;;;;;;2.90;1.55;;;;;;;5.43;78.04;97785.19;5091163;28;20493;-60
2023/10/17 12:48:28;;;;;;;2.17;1.60;;;;;;;5.37;79.09;97801.13;5090262;28;20494;-61
2023/10/17 12:50:54;;;;;;;5.68;1.70;;;;;;;5.38;79.19;97794.84;5091352;28;20128;-62
2023/10/17 12:53:20;;;;;;;2.55;1.52;;;;;;;5.33;78.90;97798.22;5090542;28;20147;-61
2023/10/17 12:55:45;;;;;;;2.53;1.50;;;;;;;5.24;78.99;97803.06;5091101;28;20044;-62
2023/10/17 12:58:11;;;;;;;2.63;1.70;;;;;;;5.22;80.35;97813.03;5090766;28;20075;-62
2023/10/17 13:00:41;;;;;;;2.25;1.38;;;;;;;5.24;80.56;97805.72;5091193;28;20135;-61
2023/10/17 13:03:07;;;;;;;2.40;1.42;;;;;;;5.24;79.64;97812.78;5072597;28;20075;-60
2023/10/17 13:05:33;;;;;;;1.60;1.27;;;;;;;5.12;80.20;97806.84;5072554;28;20121;-61
2023/10/17 13:07:59;;;;;;;2.42;1.30;;;;;;;5.14;78.75;97817.88;5091123;28;20086;-63
2023/10/17 13:10:26;;;;;;;3.85;1.20;;;;;;;5.18;79.52;97822.44;5056349;28;20133;-62
2023/10/17 13:12:53;;;;;;;1.98;1.00;;;;;;;5.17;78.55;97814.78;5068984;28;20082;-61
2023/10/17 13:15:19;;;;;;;3.03;1.20;;;;;;;5.18;78.15;97811.91;5048363;28;1174127;-62
2023/10/17 13:17:44;;;;;;;1.80;1.20;;;;;;;5.16;78.03;97821.06;5091041;28;20040;-61
2023/10/17 13:20:11;;;;;;;3.47;2.20;;;;;;;5.09;77.82;97823.88;5073322;28;20047;-61
2023/10/17 13:22:42;;;;;;;1.30;1.20;;;;;;;5.04;78.22;97823.00;5071787;28;20062;-61
2023/10/17 13:25:11;;;;;;;2.50;1.20;;;;;;;4.97;78.69;97818.72;5082805;28;20067;-61
2023/10/17 13:27:39;;;;;;;1.15;1.05;;;;;;;4.99;79.14;97823.69;5071538;28;20045;-60
2023/10/17 13:30:06;;;;;;;2.72;2.13;;;;;;;4.95;79.59;97822.59;5090820;28;20497;-61
2023/10/17 13:32:33;;;;;;;1.92;1.70;;;;;;;4.90;80.39;97825.16;5090930;28;20497;-60
2023/10/17 13:35:00;;;;;;;1.83;1.52;;;;;;;4.88;79.67;97819.31;5072713;28;20066;-63
2023/10/17 13:37:29;;;;;;;1.50;1.40;;;;;;;4.80;79.56;97820.53;5091148;28;20040;-63
2023/10/17 13:39:55;;;;;;;2.78;1.45;;;;;;;4.77;80.00;97816.56;5090838;28;20078;-62
2023/10/17 13:42:21;;;;;;;1.35;1.25;;;;;;;4.82;80.83;97830.78;5091216;28;20036;-61
2023/10/17 13:44:47;;;;;;;1.52;1.38;;;;;;;4.84;81.37;97832.13;5089789;28;20044;-61
2023/10/17 13:47:13;;;;;;;1.60;1.50;;;;;;;4.82;80.72;97822.91;5090186;28;20084;-61
2023/10/17 13:49:39;;;;;;;2.58;1.60;;;;;;;4.81;80.89;97830.00;5070554;28;20047;-60
2023/10/17 13:52:05;;;;;;;1.45;1.33;;;;;;;4.74;80.05;97832.00;5090796;28;20036;-62
2023/10/17 13:54:37;;;;;;;2.55;1.38;;;;;;;4.64;81.62;97839.66;5071858;28;20503;-61
2023/10/17 13:57:07;;;;;;;3.60;1.50;;;;;;;4.57;82.07;97842.47;5090889;28;20093;-61
2023/10/17 13:59:39;;;;;;;1.92;1.40;;;;;;;4.45;82.32;97845.13;5087724;28;20505;-63
2023/10/17 14:02:08;;;;;;;1.55;1.20;;;;;;;4.38;82.83;97844.47;5090807;28;20127;-63
2023/10/17 14:04:38;;;;;;;1.08;1.08;;;;;;;4.33;81.78;97849.63;5053758;28;20040;-62
2023/10/17 14:07:04;;;;;;;2.17;1.30;;;;;;;4.30;82.96;97852.72;5090366;28;20046;-61
2023/10/17 14:09:30;;;;;;;2.83;1.40;;;;;;;4.35;83.46;97844.16;5083994;28;20058;-62
2023/10/17 14:11:56;;;;;;;1.75;1.20;;;;;;;4.35;83.72;97857.25;5089939;28;20060;-62
2023/10/17 14:14:25;;;;;;;2.75;1.65;;;;;;;4.32;82.60;97867.22;5089367;28;20083;-62
2023/10/17 14:16:52;;;;;;;1.63;1.50;;;;;;;4.33;82.50;97871.41;5090274;28;20036;-63